Terminal Aerodrome Forecast
Issued by NWS

Home | Current Version | Previous Version | Graphics & Text | Print | Product List | Glossary On
Versions: 1 2 3 4 5 6 7 8 9 10 11 12 13 14 15 16 17
539
FTUS43 KMPX 191743
TAFAXN
TAF
KAXN 191743Z 1918/2018 13011KT 6SM -SHRA VCTS SCT030CB OVC090
     FM192000 13011KT P6SM BKN090
     FM200000 13011KT P6SM VCTS BKN050CB OVC100
      TEMPO 2001/2004 3SM -TSRA BKN030CB
     FM200500 04005KT P6SM SCT250
     FM200800 35006KT P6SM SKC=

USA.gov is the U.S. government's official web portal to all federal, state and local government web resources and services.